createdAt,value
2022-10-07T00:02:26.307Z,1.90
2022-10-07T00:04:53.180Z,2.17
2022-10-07T00:07:21.044Z,2.03
2022-10-07T00:09:47.927Z,1.83
2022-10-07T00:12:14.804Z,2.20
2022-10-07T00:14:42.677Z,2.08
2022-10-07T00:17:09.550Z,1.80
2022-10-07T00:19:36.497Z,1.70
2022-10-07T00:22:03.365Z,2.10
2022-10-07T00:24:30.209Z,2.40
2022-10-07T00:26:57.187Z,1.90
2022-10-07T00:29:24.417Z,2.17
2022-10-07T00:31:56.935Z,2.10
2022-10-07T00:34:24.966Z,2.10
2022-10-07T00:36:51.833Z,1.83
2022-10-07T00:39:18.783Z,2.40
2022-10-07T00:41:51.885Z,2.40
2022-10-07T00:44:54.174Z,2.33
2022-10-07T00:47:25.740Z,2.17
2022-10-07T00:49:55.305Z,2.45
2022-10-07T00:52:26.605Z,2.15
2022-10-07T00:54:56.634Z,2.72
2022-10-07T00:57:27.738Z,2.63
2022-10-07T00:59:57.211Z,2.72
2022-10-07T01:02:25.998Z,2.45
2022-10-07T01:04:54.738Z,2.10
2022-10-07T01:07:21.992Z,1.77
2022-10-07T01:09:51.518Z,2.10
2022-10-07T01:12:51.641Z,2.13
2022-10-07T01:15:30.467Z,1.90
2022-10-07T01:18:18.914Z,1.80
2022-10-07T01:21:08.984Z,1.90
2022-10-07T01:23:53.142Z,2.30
2022-10-07T01:26:37.843Z,1.98
2022-10-07T01:29:26.951Z,2.10
2022-10-07T01:32:05.022Z,2.00
2022-10-07T01:34:36.020Z,2.15
2022-10-07T01:37:06.772Z,2.20
2022-10-07T01:39:47.899Z,2.20
2022-10-07T01:42:16.152Z,2.10
2022-10-07T01:44:45.686Z,1.77
2022-10-07T01:47:12.590Z,2.00
2022-10-07T01:49:40.789Z,2.00
2022-10-07T01:52:33.216Z,2.28
2022-10-07T01:55:12.464Z,1.88
2022-10-07T01:57:48.223Z,2.10
2022-10-07T02:00:17.012Z,2.20
2022-10-07T02:03:37.650Z,1.95
2022-10-07T02:06:45.015Z,1.85
2022-10-07T02:09:27.676Z,2.10
2022-10-07T02:12:06.907Z,1.83
2022-10-07T02:14:46.253Z,2.20
2022-10-07T02:17:18.353Z,2.33
2022-10-07T02:19:49.995Z,2.47
2022-10-07T02:22:19.161Z,2.28
2022-10-07T02:24:49.401Z,2.67
2022-10-07T02:27:22.571Z,2.88
2022-10-07T02:29:57.449Z,2.47
2022-10-07T02:32:26.927Z,2.25
2022-10-07T02:34:59.268Z,2.58
2022-10-07T02:37:31.299Z,2.60
2022-10-07T02:39:58.782Z,2.38
2022-10-07T02:42:51.912Z,2.33
2022-10-07T02:45:26.953Z,2.28
2022-10-07T02:48:22.075Z,2.45
2022-10-07T02:50:55.455Z,2.70
2022-10-07T02:53:27.180Z,2.45
2022-10-07T02:55:56.786Z,2.63
2022-10-07T02:58:26.683Z,2.38
2022-10-07T03:00:59.390Z,2.50
2022-10-07T03:03:27.925Z,2.45
2022-10-07T03:05:59.662Z,2.38
2022-10-07T03:08:28.055Z,2.65
2022-10-07T03:10:56.093Z,2.80
2022-10-07T03:13:25.002Z,2.30
2022-10-07T03:15:56.691Z,2.67
2022-10-07T03:18:27.297Z,2.50
2022-10-07T03:21:16.329Z,2.67
2022-10-07T03:23:43.974Z,2.67
2022-10-07T03:26:12.282Z,2.33
2022-10-07T03:28:39.306Z,2.38
2022-10-07T03:31:08.901Z,2.60
2022-10-07T03:33:38.843Z,2.15
2022-10-07T03:36:09.011Z,2.05
2022-10-07T03:38:37.751Z,2.17
2022-10-07T03:41:05.100Z,2.30
2022-10-07T03:43:33.185Z,2.22
2022-10-07T03:46:02.577Z,2.10
2022-10-07T03:48:32.234Z,2.20
2022-10-07T03:50:59.525Z,1.80
2022-10-07T03:53:29.802Z,1.95
2022-10-07T03:55:58.560Z,2.08
2022-10-07T03:58:25.889Z,2.03
2022-10-07T04:00:52.829Z,1.95
2022-10-07T04:03:20.082Z,1.92
2022-10-07T04:05:59.768Z,1.70
2022-10-07T04:08:29.679Z,1.85
2022-10-07T04:10:57.421Z,2.20
2022-10-07T04:13:24.791Z,1.90
2022-10-07T04:15:53.354Z,1.73
2022-10-07T04:18:22.393Z,1.63
2022-10-07T04:20:52.857Z,1.85
2022-10-07T04:23:20.834Z,1.90
2022-10-07T04:25:47.837Z,1.83
2022-10-07T04:28:27.288Z,1.92
2022-10-07T04:31:08.908Z,2.53
2022-10-07T04:33:41.047Z,2.05
2022-10-07T04:36:10.628Z,1.75
2022-10-07T04:38:50.453Z,1.90
2022-10-07T04:41:20.086Z,2.08
2022-10-07T04:43:55.303Z,2.17
2022-10-07T04:46:25.491Z,2.67
2022-10-07T04:48:59.773Z,2.30
2022-10-07T04:51:28.104Z,2.17
2022-10-07T04:53:58.189Z,2.25
2022-10-07T04:56:34.359Z,1.98
2022-10-07T04:59:05.905Z,2.42
2022-10-07T05:01:33.407Z,1.95
2022-10-07T05:04:00.320Z,1.70
2022-10-07T05:06:27.765Z,2.00
2022-10-07T05:08:54.838Z,1.58
2022-10-07T05:11:23.463Z,1.83
2022-10-07T05:14:06.745Z,1.50
2022-10-07T05:16:35.038Z,1.50
2022-10-07T05:19:03.806Z,2.17
2022-10-07T05:21:30.939Z,1.80
2022-10-07T05:23:59.197Z,1.63
2022-10-07T05:26:32.520Z,2.00
2022-10-07T05:29:02.928Z,2.20
2022-10-07T05:31:37.173Z,2.33
2022-10-07T05:34:06.022Z,2.00
2022-10-07T05:36:34.063Z,1.95
2022-10-07T05:39:02.433Z,1.70
2022-10-07T05:41:45.185Z,2.13
2022-10-07T05:44:14.184Z,1.65
2022-10-07T05:46:42.295Z,1.60
2022-10-07T05:49:09.750Z,1.60
2022-10-07T05:51:36.998Z,1.77
2022-10-07T05:54:04.456Z,1.20
2022-10-07T05:56:37.916Z,1.50
2022-10-07T05:59:05.092Z,1.45
2022-10-07T06:01:32.623Z,1.40
2022-10-07T06:04:07.026Z,1.73
2022-10-07T06:06:36.621Z,2.25
2022-10-07T06:09:26.014Z,2.17
2022-10-07T06:12:12.267Z,2.35
2022-10-07T06:14:39.894Z,2.38
2022-10-07T06:17:08.324Z,2.00
2022-10-07T06:19:37.857Z,2.17
2022-10-07T06:22:05.452Z,1.75
2022-10-07T06:24:35.299Z,2.00
2022-10-07T06:27:02.920Z,1.73
2022-10-07T06:29:30.630Z,2.35
2022-10-07T06:31:58.052Z,2.10
2022-10-07T06:34:24.931Z,1.70
2022-10-07T06:36:53.947Z,1.70
2022-10-07T06:39:20.855Z,1.80
2022-10-07T06:41:48.198Z,1.88
2022-10-07T06:44:44.377Z,4.07
2022-10-07T06:47:16.151Z,2.22
2022-10-07T06:49:44.986Z,2.35
2022-10-07T06:52:12.637Z,1.85
2022-10-07T06:54:41.113Z,2.00
2022-10-07T06:57:26.399Z,2.03
2022-10-07T06:59:55.813Z,2.38
2022-10-07T07:02:25.663Z,2.05
2022-10-07T07:04:57.675Z,1.80
2022-10-07T07:07:26.422Z,1.40
2022-10-07T07:09:53.992Z,1.58
2022-10-07T07:12:25.449Z,1.48
2022-10-07T07:14:54.674Z,1.58
2022-10-07T07:17:22.031Z,1.42
2022-10-07T07:19:48.907Z,1.48
2022-10-07T07:22:16.571Z,1.17
2022-10-07T07:24:44.103Z,1.65
2022-10-07T07:27:12.303Z,1.42
2022-10-07T07:29:39.203Z,1.35
2022-10-07T07:32:06.368Z,1.55
2022-10-07T07:34:38.312Z,1.40
2022-10-07T07:37:07.777Z,1.35
2022-10-07T07:39:40.430Z,1.00
2022-10-07T07:42:10.621Z,1.58
2022-10-07T07:44:39.082Z,1.42
2022-10-07T07:47:10.218Z,1.20
2022-10-07T07:49:38.341Z,1.75
2022-10-07T07:52:07.923Z,1.35
2022-10-07T07:54:42.061Z,1.73
2022-10-07T07:57:09.817Z,1.50
2022-10-07T07:59:37.496Z,1.70
2022-10-07T08:02:06.401Z,1.40
2022-10-07T08:04:34.838Z,1.58
2022-10-07T08:07:02.135Z,1.70
2022-10-07T08:09:29.588Z,1.40
2022-10-07T08:11:57.461Z,1.30
2022-10-07T08:14:24.624Z,1.30
2022-10-07T08:16:55.703Z,1.30
2022-10-07T08:19:22.801Z,1.35
2022-10-07T08:21:49.953Z,1.00
2022-10-07T08:24:25.170Z,1.10
2022-10-07T08:26:53.758Z,1.75
2022-10-07T08:29:21.457Z,1.33
2022-10-07T08:31:49.427Z,1.38
2022-10-07T08:34:16.406Z,1.35
2022-10-07T08:36:47.467Z,1.40
2022-10-07T08:39:15.396Z,1.27
2022-10-07T08:42:13.623Z,1.52
2022-10-07T08:44:44.611Z,1.10
2022-10-07T08:47:17.588Z,1.58
2022-10-07T08:49:50.005Z,1.38
2022-10-07T08:52:39.180Z,1.50
2022-10-07T08:55:18.822Z,1.30
2022-10-07T08:57:48.686Z,1.52
2022-10-07T09:00:20.389Z,1.00
2022-10-07T09:03:24.937Z,1.00
2022-10-07T09:05:55.760Z,1.17
2022-10-07T09:08:28.750Z,1.10
2022-10-07T09:11:02.425Z,1.17
2022-10-07T09:13:40.509Z,1.25
2022-10-07T09:16:40.313Z,1.05
2022-10-07T09:19:17.593Z,1.20
2022-10-07T09:21:51.430Z,1.50
2022-10-07T09:24:28.318Z,1.10
2022-10-07T09:26:58.570Z,1.23
2022-10-07T09:29:27.481Z,1.25
2022-10-07T09:31:55.481Z,1.17
2022-10-07T09:34:31.070Z,1.15
2022-10-07T09:37:15.424Z,1.10
2022-10-07T09:39:44.508Z,1.00
2022-10-07T09:42:35.390Z,1.45
2022-10-07T10:16:28.959Z,1.00
2022-10-07T10:19:04.083Z,1.13
2022-10-07T10:21:40.887Z,1.08
2022-10-07T10:24:48.316Z,1.10
2022-10-07T10:27:34.973Z,1.50
2022-10-07T10:30:06.746Z,1.10
2022-10-07T10:33:18.509Z,1.48
2022-10-07T10:35:56.504Z,1.33
2022-10-07T10:38:53.508Z,1.60
2022-10-07T10:41:41.482Z,1.30
2022-10-07T10:44:10.871Z,1.45
2022-10-07T10:47:00.284Z,1.70
2022-10-07T10:49:38.793Z,1.27
2022-10-07T10:52:27.232Z,1.73
2022-10-07T10:55:18.289Z,1.92
2022-10-07T10:58:08.537Z,1.77
2022-10-07T11:00:50.479Z,2.20
2022-10-07T11:03:34.325Z,1.75
2022-10-07T11:06:07.824Z,1.55
2022-10-07T11:08:38.660Z,1.75
2022-10-07T11:11:12.259Z,1.60
2022-10-07T11:14:03.718Z,2.17
2022-10-07T11:16:51.275Z,1.60
2022-10-07T11:19:29.410Z,1.60
2022-10-07T11:22:00.820Z,1.80
2022-10-07T11:24:57.153Z,1.88
2022-10-07T11:27:29.715Z,2.15
2022-10-07T11:30:23.212Z,1.80
2022-10-07T11:33:05.405Z,1.90
2022-10-07T11:35:36.374Z,2.33
2022-10-07T11:38:15.338Z,2.10
2022-10-07T11:40:53.734Z,2.42
2022-10-07T11:43:34.783Z,2.35
2022-10-07T11:46:14.512Z,1.85
2022-10-07T11:48:50.477Z,2.03
2022-10-07T11:51:27.238Z,1.90
2022-10-07T11:53:57.997Z,2.10
2022-10-07T11:56:27.059Z,1.40
2022-10-07T11:59:00.993Z,1.55
2022-10-07T12:01:29.025Z,1.45
2022-10-07T12:04:02.207Z,1.80
2022-10-07T12:06:29.124Z,1.40
2022-10-07T12:08:56.022Z,1.48
2022-10-07T12:11:22.925Z,2.08
2022-10-07T12:13:51.926Z,1.50
2022-10-07T12:16:24.787Z,1.30
2022-10-07T12:19:23.342Z,1.45
2022-10-07T12:21:59.837Z,1.75
2022-10-07T12:24:28.175Z,1.63
2022-10-07T12:27:17.749Z,1.60
2022-10-07T12:29:48.619Z,1.67
2022-10-07T12:32:53.140Z,1.30
2022-10-07T12:35:36.789Z,1.13
2022-10-07T12:38:13.847Z,1.38
2022-10-07T12:40:42.630Z,1.20
2022-10-07T12:43:34.468Z,1.55
2022-10-07T12:46:06.092Z,1.80
2022-10-07T12:48:42.016Z,1.38
2022-10-07T12:51:19.840Z,1.30
2022-10-07T12:53:49.108Z,1.85
2022-10-07T12:56:26.550Z,1.60
2022-10-07T12:59:21.141Z,1.55
2022-10-07T13:01:50.961Z,1.20
2022-10-07T13:04:47.972Z,1.30
2022-10-07T13:07:30.003Z,1.40
2022-10-07T13:10:14.891Z,1.83
2022-10-07T13:13:25.063Z,1.65
2022-10-07T13:16:17.415Z,1.95
2022-10-07T13:18:52.783Z,1.27
2022-10-07T13:21:29.492Z,1.42
2022-10-07T13:23:56.954Z,1.52
2022-10-07T13:26:26.067Z,1.35
2022-10-07T13:28:58.542Z,1.73
2022-10-07T13:31:31.817Z,1.90
2022-10-07T13:34:16.547Z,1.25
2022-10-07T13:36:43.849Z,1.25
2022-10-07T13:39:19.727Z,1.40
2022-10-07T13:41:49.110Z,1.50
2022-10-07T13:44:19.516Z,1.48
2022-10-07T13:47:04.932Z,1.75
2022-10-07T13:49:43.717Z,1.50
2022-10-07T13:52:47.558Z,1.42
2022-10-07T13:55:30.769Z,2.40
2022-10-07T13:58:02.003Z,1.60
2022-10-07T14:00:32.503Z,1.30
2022-10-07T14:03:01.951Z,1.40
2022-10-07T14:05:31.334Z,1.38
2022-10-07T14:08:14.181Z,1.58
2022-10-07T14:10:56.400Z,1.60
2022-10-07T14:13:23.510Z,1.50
2022-10-07T14:15:54.529Z,1.30
2022-10-07T14:18:22.245Z,1.70
2022-10-07T14:20:55.609Z,1.40
2022-10-07T14:23:28.508Z,1.27
2022-10-07T14:26:04.341Z,1.38
2022-10-07T14:28:33.791Z,1.15
2022-10-07T14:31:25.479Z,1.30
2022-10-07T14:34:32.994Z,1.40
2022-10-07T14:37:20.101Z,1.50
2022-10-07T14:39:49.557Z,1.92
2022-10-07T14:42:35.893Z,1.52
2022-10-07T14:45:08.379Z,1.50
2022-10-07T14:47:38.020Z,1.67
2022-10-07T14:50:05.340Z,1.48
2022-10-07T14:52:52.602Z,1.65
2022-10-07T14:55:26.514Z,1.50
2022-10-07T14:57:54.224Z,1.30
2022-10-07T15:00:23.598Z,1.40
2022-10-07T15:02:50.936Z,1.05
2022-10-07T15:05:19.235Z,1.40
2022-10-07T15:07:46.358Z,2.08
2022-10-07T15:10:16.530Z,1.55
2022-10-07T15:12:44.425Z,1.30
2022-10-07T15:15:12.902Z,1.20
2022-10-07T15:17:41.015Z,1.00
2022-10-07T15:20:10.599Z,1.17
2022-10-07T15:22:38.239Z,1.15
2022-10-07T15:25:06.782Z,1.50
2022-10-07T15:27:33.976Z,1.10
2022-10-07T15:30:01.037Z,1.40
2022-10-07T15:32:30.701Z,1.30
2022-10-07T15:34:57.910Z,1.45
2022-10-07T15:37:27.982Z,1.63
2022-10-07T15:39:55.097Z,1.42
2022-10-07T15:42:24.630Z,1.58
2022-10-07T15:44:52.309Z,1.30
2022-10-07T15:47:19.654Z,1.55
2022-10-07T15:49:46.675Z,1.33
2022-10-07T15:52:13.604Z,1.27
2022-10-07T15:54:40.559Z,1.17
2022-10-07T15:57:08.511Z,1.17
2022-10-07T15:59:35.888Z,1.30
2022-10-07T16:02:04.507Z,1.42
2022-10-07T16:04:32.142Z,1.60
2022-10-07T16:06:59.659Z,1.40
2022-10-07T16:09:26.843Z,1.60
2022-10-07T16:11:54.235Z,1.25
2022-10-07T16:14:21.130Z,1.02
2022-10-07T16:16:48.050Z,1.38
2022-10-07T16:19:15.008Z,1.50
2022-10-07T16:21:43.051Z,1.80
2022-10-07T16:24:23.742Z,1.27
2022-10-07T16:26:51.008Z,1.40
2022-10-07T16:29:41.270Z,1.20
2022-10-07T16:32:12.876Z,2.15
2022-10-07T16:34:43.512Z,2.17
2022-10-07T16:37:11.991Z,1.42
2022-10-07T16:39:38.966Z,1.42
2022-10-07T16:42:06.057Z,2.00
2022-10-07T16:44:33.010Z,1.70
2022-10-07T16:47:00.787Z,1.42
2022-10-07T16:49:30.368Z,1.48
2022-10-07T16:51:58.260Z,1.63
2022-10-07T16:54:25.490Z,1.50
2022-10-07T16:56:53.087Z,1.40
2022-10-07T16:59:24.709Z,2.08
2022-10-07T17:01:56.910Z,1.45
2022-10-07T17:04:25.430Z,2.28
2022-10-07T17:06:53.205Z,1.35
2022-10-07T17:09:21.915Z,1.40
2022-10-07T17:11:48.962Z,1.77
2022-10-07T17:14:18.790Z,1.85
2022-10-07T17:16:48.588Z,1.63
2022-10-07T17:19:18.239Z,1.83
2022-10-07T17:21:47.772Z,1.30
2022-10-07T17:24:18.612Z,1.88
2022-10-07T17:26:46.069Z,1.58
2022-10-07T17:29:15.159Z,1.40
2022-10-07T17:31:43.623Z,2.15
2022-10-07T17:34:11.961Z,2.00
2022-10-07T17:36:40.645Z,1.65
2022-10-07T17:39:08.038Z,1.77
2022-10-07T17:41:37.573Z,1.65
2022-10-07T17:44:10.589Z,1.73
2022-10-07T17:46:39.463Z,1.52
2022-10-07T17:49:08.681Z,1.80
2022-10-07T17:51:37.367Z,1.23
2022-10-07T17:54:06.219Z,1.63
2022-10-07T17:56:34.800Z,1.38
2022-10-07T17:59:02.313Z,2.05
2022-10-07T18:01:34.163Z,2.05
2022-10-07T18:04:03.721Z,1.60
2022-10-07T18:06:33.939Z,1.88
2022-10-07T18:09:04.660Z,2.03
2022-10-07T18:11:50.643Z,2.00
2022-10-07T18:14:57.087Z,2.83
2022-10-07T18:17:24.800Z,1.70
2022-10-07T18:19:51.884Z,2.22
2022-10-07T18:22:19.454Z,1.58
2022-10-07T18:24:46.365Z,1.63
2022-10-07T18:27:13.652Z,1.75
2022-10-07T18:29:40.640Z,3.13
2022-10-07T18:32:07.703Z,2.25
2022-10-07T18:34:34.976Z,1.98
2022-10-07T18:37:02.046Z,2.10
2022-10-07T18:39:29.789Z,1.67
2022-10-07T18:41:58.388Z,1.73
2022-10-07T18:44:26.005Z,1.75
2022-10-07T18:46:53.566Z,2.05
2022-10-07T18:49:20.599Z,1.73
2022-10-07T18:51:50.557Z,2.00
2022-10-07T18:54:21.399Z,1.80
2022-10-07T18:56:49.631Z,1.98
2022-10-07T18:59:20.208Z,1.73
2022-10-07T19:01:50.432Z,1.92
2022-10-07T19:04:18.975Z,1.92
2022-10-07T19:06:46.606Z,2.00
2022-10-07T19:09:19.856Z,2.17
2022-10-07T19:11:47.318Z,1.98
2022-10-07T19:14:14.770Z,1.83
2022-10-07T19:16:49.126Z,1.98
2022-10-07T19:19:19.422Z,1.63
2022-10-07T19:21:54.886Z,2.58
2022-10-07T19:24:42.725Z,1.88
2022-10-07T19:27:09.690Z,1.90
2022-10-07T19:29:36.642Z,1.83
2022-10-07T19:32:08.043Z,1.80
2022-10-07T19:34:35.325Z,1.67
2022-10-07T19:37:02.263Z,2.00
2022-10-07T19:39:29.222Z,2.00
2022-10-07T19:41:57.578Z,1.50
2022-10-07T19:44:24.888Z,2.13
2022-10-07T19:46:54.286Z,2.03
2022-10-07T19:49:21.311Z,2.20
2022-10-07T19:51:48.214Z,2.05
2022-10-07T19:54:15.211Z,2.28
2022-10-07T19:56:42.246Z,2.25
2022-10-07T19:59:11.688Z,1.60
2022-10-07T20:01:43.997Z,1.70
2022-10-07T20:04:16.442Z,2.65
2022-10-07T20:06:43.915Z,2.28
2022-10-07T20:09:14.411Z,2.28
2022-10-07T20:11:41.642Z,2.55
2022-10-07T20:14:10.122Z,1.95
2022-10-07T20:16:38.314Z,1.90
2022-10-07T20:19:07.955Z,2.13
2022-10-07T20:21:37.764Z,2.03
2022-10-07T20:24:05.972Z,2.10
2022-10-07T20:26:38.570Z,2.22
2022-10-07T20:29:10.161Z,2.00
2022-10-07T20:31:39.383Z,2.65
2022-10-07T20:34:08.863Z,1.98
2022-10-07T20:36:37.533Z,2.15
2022-10-07T20:39:32.447Z,3.08
2022-10-07T20:42:17.891Z,1.90
2022-10-07T20:44:47.180Z,2.30
2022-10-07T20:47:14.158Z,2.30
2022-10-07T20:49:42.290Z,2.28
2022-10-07T20:52:16.904Z,2.20
2022-10-07T20:54:44.861Z,2.47
2022-10-07T20:57:13.639Z,2.60
2022-10-07T20:59:40.589Z,3.13
2022-10-07T21:02:09.711Z,3.10
2022-10-07T21:04:36.971Z,2.72
2022-10-07T21:07:03.868Z,2.83
2022-10-07T21:09:36.504Z,3.50
2022-10-07T21:12:07.662Z,3.75
2022-10-07T21:14:37.749Z,3.67
2022-10-07T21:17:05.459Z,3.20
2022-10-07T21:19:33.048Z,3.70
2022-10-07T21:22:00.018Z,4.03
2022-10-07T21:24:26.926Z,3.95
2022-10-07T21:26:53.782Z,3.45
2022-10-07T21:29:20.646Z,3.53
2022-10-07T21:31:47.482Z,3.28
2022-10-07T21:34:14.349Z,3.17
2022-10-07T21:36:50.428Z,3.92
2022-10-07T21:39:20.117Z,3.80
2022-10-07T21:41:48.184Z,3.38
2022-10-07T21:44:15.472Z,3.50
2022-10-07T21:46:42.947Z,3.42
2022-10-07T21:49:10.085Z,3.83
2022-10-07T21:51:38.157Z,3.28
2022-10-07T21:54:05.683Z,3.95
2022-10-07T21:56:33.425Z,3.47
2022-10-07T21:59:01.673Z,3.35
2022-10-07T22:01:29.106Z,3.42
2022-10-07T22:03:58.655Z,4.13
2022-10-07T22:06:45.404Z,3.20
2022-10-07T22:09:14.455Z,4.20
2022-10-07T22:11:41.767Z,3.15
2022-10-07T22:14:12.593Z,3.83
2022-10-07T22:16:40.647Z,3.60
2022-10-07T22:19:07.835Z,3.75
2022-10-07T22:21:39.291Z,3.95
2022-10-07T22:24:07.954Z,4.15
2022-10-07T22:26:42.182Z,3.40
2022-10-07T22:29:10.210Z,3.28
2022-10-07T22:31:37.850Z,3.35
2022-10-07T22:34:06.380Z,3.50
2022-10-07T22:36:33.546Z,3.33
2022-10-07T22:39:00.593Z,4.00
2022-10-07T22:41:28.148Z,3.30
2022-10-07T22:43:55.248Z,4.20
2022-10-07T22:46:28.456Z,3.78
2022-10-07T22:48:58.273Z,4.22
2022-10-07T22:51:28.624Z,4.45
2022-10-07T22:53:56.949Z,4.07
2022-10-07T22:56:25.856Z,3.75
2022-10-07T22:58:58.146Z,4.03
2022-10-07T23:01:29.598Z,3.83
2022-10-07T23:04:00.973Z,4.22
2022-10-07T23:06:28.187Z,4.30
2022-10-07T23:08:56.400Z,3.78
2022-10-07T23:11:25.670Z,4.57
2022-10-07T23:13:54.619Z,3.67
2022-10-07T23:16:26.130Z,3.97
2022-10-07T23:18:53.710Z,4.07
2022-10-07T23:21:26.231Z,3.75
2022-10-07T23:23:56.765Z,3.88
2022-10-07T23:26:27.144Z,3.80
2022-10-07T23:28:56.674Z,3.63
2022-10-07T23:31:27.478Z,3.80
2022-10-07T23:33:56.073Z,4.15
2022-10-07T23:36:25.101Z,4.05
2022-10-07T23:38:52.794Z,4.00
2022-10-07T23:41:22.233Z,4.15
2022-10-07T23:43:50.646Z,3.85
2022-10-07T23:46:19.480Z,3.83
2022-10-07T23:48:47.172Z,4.40
2022-10-07T23:51:19.416Z,3.85
2022-10-07T23:53:47.445Z,4.13
2022-10-07T23:56:14.747Z,4.45
2022-10-07T23:58:41.719Z,4.40
